ADDS METAR Data INFO
IDs: Format: Raw Decoded Include TAF

Data at: 1716 UTC 23 Oct 2017

KORE 231652Z AUTO 18004KT 10SM OVC024 18/13 A3027 RMK AO2 SLP252 T01780133 TSNO
KORE 231552Z AUTO VRB04KT 10SM SCT015 OVC023 17/13 A3030 RMK AO2 SLP262 T01670133 TSNO
KORE 231549Z AUTO VRB03KT 10SM BKN015 OVC023 16/13 A3030 RMK AO2 TSNO
KORE 231511Z AUTO 20003KT 10SM BKN014 OVC020 14/12 A3032 RMK AO2 T01440122 TSNO
KORE 231452Z AUTO 00000KT 10SM OVC015 13/12 A3033 RMK AO2 SLP273 T01330117 58009 TSNO
KORE 231352Z AUTO 09003KT 10SM OVC015 11/10 A3035 RMK AO2 SLP280 T01060100 TSNO
KORE 231333Z AUTO 00000KT 10SM SCT004 OVC015 10/10 A3036 RMK AO2 T01000100 TSNO
KORE 231321Z AUTO 00000KT 10SM BKN004 BKN015 09/09 A3036 RMK AO2 T00890089 TSNO
KORE 231252Z AUTO 00000KT 10SM BKN006 OVC016 07/07 A3036 RMK AO2 CIG 002V008 SLP284 T00720072 TSNO
KORE 231249Z AUTO 00000KT 10SM FEW002 BKN006 OVC016 07/07 A3036 RMK AO2 TSNO
KORE 231239Z AUTO 00000KT 10SM BKN004 OVC016 07/07 A3036 RMK AO2 CIG 002V006 T00720072 TSNO
KORE 231234Z AUTO 00000KT 9SM SCT002 OVC016 07/07 A3036 RMK AO2 T00670067 TSNO
KORE 231152Z AUTO 00000KT 5SM BR SCT003 OVC009 06/06 A3037 RMK AO2 SLP290 T00560056 10056 20044 53004 TSNO
KORE 231148Z AUTO 00000KT 2SM BR SCT003 OVC009 06/06 A3037 RMK AO2 TSNO
KORE 231146Z AUTO 00000KT 1 1/4SM BR BKN003 OVC009 06/06 A3038 RMK AO2 TSNO
KORE 231052Z AUTO 00000KT 1/4SM FG VV002 05/05 A3036 RMK AO2 SLP283 T00500050 TSNO
KORE 230952Z AUTO 00000KT 1/4SM FG VV002 05/05 A3036 RMK AO2 SLP283 T00500050 TSNO
KORE 230852Z AUTO 00000KT 1/2SM FG VV002 06/06 A3036 RMK AO2 SLP282 T00560056 56008 TSNO
KORE 230752Z AUTO 00000KT 1/2SM FG VV002 06/06 A3036 RMK AO2 SLP283 T00560056 TSNO
KORE 230652Z AUTO 00000KT 3/4SM BR OVC002 05/05 A3037 RMK AO2 SLP286 T00500050 TSNO
KORE 230637Z AUTO 00000KT 3/4SM BR OVC002 05/05 A3037 RMK AO2 T00500050 TSNO
KORE 230631Z AUTO 00000KT 1 1/4SM BR OVC002 05/05 A3037 RMK AO2 T00500050 TSNO
KORE 230552Z AUTO 00000KT 1/2SM FG OVC002 05/05 A3039 RMK AO2 SLP291 T00500050 10106 20044 58004 TSNO
KORE 230546Z AUTO 00000KT 1SM BR BKN002 06/06 A3039 RMK AO2 TSNO
KORE 230544Z AUTO 00000KT 1 1/2SM BR BKN002 05/05 A3038 RMK AO2 T00500050 TSNO
KORE 230542Z AUTO 00000KT 3SM BR BKN002 05/05 A3039 RMK AO2 T00500050 TSNO
KORE 230532Z AUTO 00000KT 6SM BR SCT002 05/05 A3039 RMK AO2 T00500050 TSNO
KORE 230452Z AUTO 00000KT 10SM CLR 06/06 A3039 RMK AO2 SLP293 T00560056 402390028 TSNO
KORE 230442Z AUTO 00000KT 4SM BR CLR 06/06 A3039 RMK AO2 T00560056 TSNO
KORE 230433Z AUTO 00000KT 1 1/2SM BR CLR 06/06 A3040 RMK AO2 T00560056 TSNO
KORE 230352Z AUTO 00000KT 10SM CLR 07/07 A3040 RMK AO2 SLP297 T00670067 TSNO
KORE 230252Z AUTO 00000KT 10SM CLR 07/07 A3040 RMK AO2 SLP297 T00670067 50007 TSNO
KORE 230152Z AUTO 00000KT 10SM CLR 08/08 A3040 RMK AO2 SLP299 T00780078 TSNO
KORE 230052Z AUTO 00000KT 10SM CLR 09/08 A3039 RMK AO2 SLP295 T00940083 TSNO
KORE 222352Z AUTO 00000KT 10SM CLR 11/09 A3038 RMK AO2 SLP291 T01060089 10239 20106 53005 TSNO
KORE 222252Z AUTO 00000KT 10SM CLR 12/09 A3036 RMK AO2 SLP286 T01220094 TSNO
KORE 222152Z AUTO 00000KT 10SM CLR 16/09 A3036 RMK AO2 SLP284 T01560094 TSNO
KORE 222052Z AUTO 18003KT 10SM CLR 23/04 A3036 RMK AO2 SLP283 T02280044 56002 TSNO
KORE 221952Z AUTO 19006KT 10SM CLR 24/05 A3036 RMK AO2 SLP283 T02390050 TSNO
KORE 221852Z AUTO 20004KT 10SM CLR 22/09 A3036 RMK AO2 SLP284 T02220089 TSNO
KORE 221752Z AUTO 19008KT 10SM CLR 23/06 A3037 RMK AO2 SLP284 T02280061 10239 20039 56016 TSNO
KORE 221652Z AUTO 20003KT 10SM CLR 23/08 A3037 RMK AO2 SLP286 T02280083 TSNO
KORE 221552Z AUTO 00000KT 10SM CLR 19/10 A3039 RMK AO2 SLP294 T01890100 TSNO
KORE 221452Z AUTO 00000KT 10SM CLR 14/09 A3041 RMK AO2 SLP301 T01440094 58001 TSNO
KORE 221352Z AUTO 00000KT 10SM CLR 10/08 A3043 RMK AO2 SLP307 T01000083 TSNO
KORE 221252Z AUTO 00000KT 10SM CLR 07/07 A3043 RMK AO2 SLP308 T00720067 TSNO
KORE 221152Z AUTO 00000KT 10SM CLR 04/04 A3042 RMK AO2 SLP304 T00390039 10056 20028 53015 TSNO
KORE 221052Z AUTO 00000KT 7SM CLR 04/04 A3040 RMK AO2 SLP297 T00390039 TSNO
KORE 220952Z AUTO 00000KT 10SM CLR 04/04 A3039 RMK AO2 SLP293 T00440044 TSNO
KORE 220852Z AUTO 00000KT 10SM CLR 05/05 A3037 RMK AO2 SLP286 T00500050 53003 TSNO
KORE 220752Z AUTO 00000KT 10SM CLR 04/04 A3037 RMK AO2 SLP284 T00440044 TSNO
KORE 220726Z AUTO 00000KT 10SM CLR 04/04 A3037 RMK AO2 T00440044 TSNO
KORE 220719Z AUTO 00000KT 2SM BR CLR 04/04 A3036 RMK AO2 T00440044 TSNO
KORE 220709Z AUTO 00000KT 1SM BR CLR 05/05 A3036 RMK AO2 T00500050 TSNO
KORE 220703Z AUTO 00000KT 1 1/2SM BR CLR 05/05 A3036 RMK AO2 T00500050 TSNO
KORE 220655Z AUTO 00000KT 1SM BR CLR 04/04 A3036 RMK AO2 T00440044 TSNO
KORE 220652Z AUTO 00000KT 1 1/2SM BR CLR 04/04 A3036 RMK AO2 VIS 3/4V2 1/2 SLP282 T00440044 TSNO
KORE 220639Z AUTO 00000KT 2SM BR CLR 05/05 A3036 RMK AO2 VIS 1/2V5 T00500050 TSNO
KORE 220637Z AUTO 00000KT 1 1/4SM BR CLR 05/05 A3036 RMK AO2 VIS 1/2V5 T00500050 TSNO
KORE 220632Z AUTO 00000KT 3/4SM BR CLR 05/05 A3036 RMK AO2 T00500050 TSNO
KORE 220608Z AUTO 00000KT 1SM BR CLR 05/05 A3037 RMK AO2 T00500050 TSNO
KORE 220605Z AUTO 00000KT 1 3/4SM BR CLR 05/05 A3037 RMK AO2 T00500050 TSNO
KORE 220552Z AUTO 00000KT 5SM BR CLR 05/05 A3036 RMK AO2 SLP283 T00500050 10111 20050 53004 TSNO
KORE 220539Z AUTO 00000KT 1 1/2SM BR CLR 06/06 A3036 RMK AO2 T00560056 TSNO
KORE 220519Z AUTO 00000KT 1/2SM FG CLR 06/06 A3036 RMK AO2 T00610061 TSNO